Time;durP1;ratioP1;P1;durP2;ratioP2;P2;SDS_P1;SDS_P2;PMS_P1;PMS_P2;Temp;Humidity;BMP_temperature;BMP_pressure;BME280_temperature;BME280_humidity;BME280_pressure;Samples;Min_cycle;Max_cycle;Signal;HPM_P1;HPM_P2
2023/10/24 00:00:44;;;;;;;12.13;11.03;;;10.80;99.90;;;;;;5054907;28;20462;-71
2023/10/24 00:03:12;;;;;;;13.43;12.20;;;10.80;99.90;;;;;;5038372;28;20452;-71
2023/10/24 00:05:40;;;;;;;12.30;11.17;;;10.80;99.90;;;;;;5056098;28;20521;-71
2023/10/24 00:08:08;;;;;;;14.13;12.47;;;10.80;99.90;;;;;;5054507;28;20914;-71
2023/10/24 00:10:36;;;;;;;11.87;10.77;;;10.80;99.90;;;;;;5055788;28;20445;-71
2023/10/24 00:13:06;;;;;;;12.87;11.57;;;10.80;99.90;;;;;;5056088;28;20848;-72
2023/10/24 00:15:34;;;;;;;11.37;10.20;;;10.90;99.90;;;;;;5055798;28;20516;-71
2023/10/24 00:18:02;;;;;;;12.90;11.17;;;10.80;99.90;;;;;;5055834;28;20464;-71
2023/10/24 00:20:30;;;;;;;11.07;10.07;;;10.80;99.90;;;;;;5054281;28;20456;-71
2023/10/24 00:22:58;;;;;;;11.93;10.80;;;10.80;99.90;;;;;;5054500;28;20824;-71
2023/10/24 00:25:26;;;;;;;12.60;11.40;;;10.90;99.90;;;;;;5056181;28;20434;-71
2023/10/24 00:27:54;;;;;;;11.13;10.23;;;10.90;99.90;;;;;;5037941;28;20504;-71
2023/10/24 00:30:24;;;;;;;12.10;11.00;;;10.90;99.90;;;;;;5054779;28;20454;-71
2023/10/24 00:32:52;;;;;;;12.87;11.47;;;10.90;99.90;;;;;;5054696;28;20959;-70
2023/10/24 00:35:20;;;;;;;12.37;11.27;;;10.90;99.90;;;;;;5053905;28;20914;-71
2023/10/24 00:37:49;;;;;;;12.73;11.67;;;10.90;99.90;;;;;;5055538;28;20544;-70
2023/10/24 00:40:18;;;;;;;11.57;10.57;;;10.90;99.90;;;;;;5055615;28;20441;-71
2023/10/24 00:42:47;;;;;;;12.40;11.30;;;10.90;99.90;;;;;;5037643;28;20545;-71
2023/10/24 00:45:15;;;;;;;13.00;11.80;;;10.90;99.90;;;;;;5054391;28;20856;-71
2023/10/24 00:47:46;;;;;;;12.47;11.37;;;10.90;99.90;;;;;;5055194;28;20486;-71
2023/10/24 00:50:14;;;;;;;12.20;11.13;;;10.90;99.90;;;;;;5053803;28;20877;-71
2023/10/24 00:52:45;;;;;;;13.10;11.80;;;11.00;99.90;;;;;;5055039;28;20430;-71
2023/10/24 00:55:16;;;;;;;12.93;11.60;;;11.00;99.90;;;;;;5036920;28;20466;-70
2023/10/24 00:57:46;;;;;;;13.10;12.00;;;11.00;99.90;;;;;;5054967;28;20860;-71
2023/10/24 01:00:15;;;;;;;13.53;12.13;;;11.00;99.90;;;;;;5054862;28;20956;-71
2023/10/24 01:02:45;;;;;;;12.43;11.40;;;11.00;99.90;;;;;;5054573;28;20466;-72
2023/10/24 01:05:14;;;;;;;13.10;11.87;;;11.00;99.90;;;;;;5054384;28;20800;-72
2023/10/24 01:07:42;;;;;;;13.47;12.17;;;11.00;99.90;;;;;;5036437;28;20474;-72
2023/10/24 01:10:12;;;;;;;13.40;12.00;;;11.10;99.90;;;;;;5053101;28;20453;-71
2023/10/24 01:12:41;;;;;;;13.43;12.23;;;11.10;99.90;;;;;;5054844;28;20510;-71
2023/10/24 01:15:10;;;;;;;13.93;12.63;;;11.10;99.90;;;;;;5036294;28;20502;-71
2023/10/24 01:17:49;;;;;;;13.40;12.07;;;11.10;99.90;;;;;;5054433;28;20536;-71
2023/10/24 01:20:18;;;;;;;13.87;12.67;;;11.20;99.90;;;;;;5052888;28;20438;-71
2023/10/24 01:22:48;;;;;;;13.80;12.50;;;11.20;99.90;;;;;;5052852;28;20831;-71
2023/10/24 01:25:18;;;;;;;13.70;12.50;;;11.20;99.90;;;;;;5053006;28;20939;-71
2023/10/24 01:27:53;;;;;;;14.93;13.57;;;11.20;99.90;;;;;;5052793;28;20461;-71
2023/10/24 01:30:22;;;;;;;14.97;13.50;;;11.20;99.90;;;;;;5036258;28;20438;-71
2023/10/24 01:32:50;;;;;;;13.60;12.40;;;11.20;99.90;;;;;;5036186;28;20869;-71
2023/10/24 01:35:19;;;;;;;14.47;13.00;;;11.20;99.90;;;;;;5036012;28;20485;-71
2023/10/24 01:37:48;;;;;;;14.13;12.80;;;11.20;99.90;;;;;;5036676;28;20454;-71
2023/10/24 01:40:16;;;;;;;14.17;12.93;;;11.30;99.90;;;;;;5037528;28;20454;-71
2023/10/24 01:42:44;;;;;;;14.30;13.00;;;11.30;99.90;;;;;;5055051;28;20434;-71
2023/10/24 01:45:14;;;;;;;14.43;13.03;;;11.30;99.90;;;;;;5054184;28;20533;-71
2023/10/24 01:47:42;;;;;;;14.40;13.20;;;11.30;99.90;;;;;;5052556;28;20535;-70
2023/10/24 01:50:11;;;;;;;14.43;13.03;;;11.30;99.90;;;;;;5054211;28;20857;-70
2023/10/24 01:52:39;;;;;;;15.43;14.03;;;11.30;99.90;;;;;;5054066;28;20848;-71
2023/10/24 01:55:09;;;;;;;15.70;14.30;;;11.30;99.90;;;;;;5053710;28;20476;-71
2023/10/24 01:57:38;;;;;;;14.00;12.80;;;11.30;99.90;;;;;;5035949;28;20833;-71
2023/10/24 02:00:08;;;;;;;15.37;13.90;;;11.40;99.90;;;;;;5052456;28;20911;-71
2023/10/24 02:02:42;;;;;;;15.27;13.87;;;11.30;99.90;;;;;;5035882;28;20483;-70
2023/10/24 02:05:12;;;;;;;15.20;13.87;;;11.30;99.90;;;;;;5035934;28;20492;-71
2023/10/24 02:07:40;;;;;;;14.90;13.50;;;11.40;99.90;;;;;;5053882;28;20458;-71
2023/10/24 02:10:10;;;;;;;16.13;14.73;;;11.30;99.90;;;;;;5053934;28;20438;-70
2023/10/24 02:12:38;;;;;;;15.50;14.10;;;11.40;99.90;;;;;;5036188;28;20438;-71
2023/10/24 02:15:07;;;;;;;16.33;14.93;;;11.40;99.90;;;;;;5035873;28;20584;-71
2023/10/24 02:17:36;;;;;;;15.03;13.63;;;11.40;99.90;;;;;;5035938;28;20511;-71
2023/10/24 02:20:05;;;;;;;17.10;15.37;;;11.40;99.90;;;;;;5052600;28;20450;-71
2023/10/24 02:22:33;;;;;;;16.07;14.67;;;11.40;99.90;;;;;;5036154;28;20438;-71
2023/10/24 02:25:01;;;;;;;15.40;14.00;;;11.40;99.90;;;;;;5052593;28;20458;-71
2023/10/24 02:27:31;;;;;;;15.63;14.07;;;11.40;99.90;;;;;;5053835;28;20446;-71
2023/10/24 02:29:59;;;;;;;16.23;14.70;;;11.40;99.90;;;;;;5035777;28;20504;-71
2023/10/24 02:32:27;;;;;;;17.60;15.30;;;11.40;99.90;;;;;;5052758;28;21013;-71
2023/10/24 02:34:56;;;;;;;14.37;13.17;;;11.40;99.90;;;;;;5053892;28;20434;-71
2023/10/24 02:37:24;;;;;;;15.73;14.37;;;11.40;99.90;;;;;;5053611;28;20983;-70
2023/10/24 02:39:52;;;;;;;15.40;14.10;;;11.40;99.90;;;;;;5053770;28;20927;-71
2023/10/24 02:42:20;;;;;;;15.40;14.00;;;11.40;99.90;;;;;;5053799;28;20442;-70
2023/10/24 02:44:51;;;;;;;16.60;14.90;;;11.40;99.90;;;;;;5052434;28;20481;-71
2023/10/24 02:47:21;;;;;;;16.83;15.23;;;11.40;99.90;;;;;;5019179;28;20469;-70
2023/10/24 02:49:50;;;;;;;16.40;14.87;;;11.40;99.90;;;;;;5054023;28;20524;-70
2023/10/24 02:52:18;;;;;;;16.20;14.90;;;11.40;99.90;;;;;;5052287;28;20811;-70
2023/10/24 02:54:46;;;;;;;15.73;14.33;;;11.40;99.90;;;;;;5052437;28;20529;-71
2023/10/24 02:57:15;;;;;;;18.20;16.50;;;11.50;99.90;;;;;;5035708;28;21058;-71
2023/10/24 02:59:43;;;;;;;16.53;15.03;;;11.40;99.90;;;;;;5038154;28;20966;-70
2023/10/24 03:02:13;;;;;;;16.33;14.77;;;11.50;99.90;;;;;;5056266;28;20450;-70
2023/10/24 03:04:42;;;;;;;16.90;15.30;;;11.50;99.90;;;;;;5056049;28;20442;-70
2023/10/24 03:07:10;;;;;;;17.77;16.17;;;11.50;99.90;;;;;;5056065;28;20477;-71
2023/10/24 03:09:38;;;;;;;16.63;15.13;;;11.50;99.90;;;;;;5055282;28;20460;-70
2023/10/24 03:12:09;;;;;;;16.83;15.33;;;11.50;99.90;;;;;;5056449;28;20946;-70
2023/10/24 03:14:37;;;;;;;16.00;14.47;;;11.50;99.90;;;;;;5056739;28;20414;-70
2023/10/24 03:17:05;;;;;;;17.20;15.40;;;11.50;99.90;;;;;;5055004;28;20478;-70
2023/10/24 03:19:35;;;;;;;17.47;15.70;;;11.50;99.90;;;;;;5056304;28;20985;-70
2023/10/24 03:22:04;;;;;;;17.27;15.57;;;11.50;99.90;;;;;;5056260;28;20441;-70
2023/10/24 03:24:32;;;;;;;16.23;14.53;;;11.50;99.90;;;;;;5056487;28;20978;-70
2023/10/24 03:27:00;;;;;;;16.17;14.67;;;11.50;99.90;;;;;;5054916;28;20553;-70
2023/10/24 03:29:28;;;;;;;16.03;14.53;;;11.50;99.90;;;;;;5056172;28;20438;-70
2023/10/24 03:31:56;;;;;;;16.40;15.00;;;11.50;99.90;;;;;;5054817;28;21038;-70
2023/10/24 03:34:26;;;;;;;16.27;14.87;;;11.50;99.90;;;;;;5038414;28;20469;-71
2023/10/24 03:36:56;;;;;;;16.50;14.90;;;11.50;99.90;;;;;;5055849;28;20473;-70
2023/10/24 03:39:24;;;;;;;15.63;14.33;;;11.50;99.90;;;;;;5054647;28;20973;-70
2023/10/24 03:41:52;;;;;;;16.30;14.80;;;11.50;99.90;;;;;;5055927;28;20521;-70
2023/10/24 03:44:22;;;;;;;16.53;15.03;;;11.50;99.90;;;;;;5055952;28;20438;-70
2023/10/24 03:46:50;;;;;;;17.73;16.00;;;11.50;99.90;;;;;;5055829;28;20441;-70
2023/10/24 03:49:18;;;;;;;17.67;16.07;;;11.50;99.90;;;;;;5056040;28;20434;-70
2023/10/24 03:51:47;;;;;;;16.53;15.13;;;11.50;99.90;;;;;;5054459;28;20485;-70
2023/10/24 03:54:17;;;;;;;16.50;15.00;;;11.50;99.90;;;;;;5055711;28;20532;-70
2023/10/24 03:56:45;;;;;;;16.77;15.27;;;11.50;99.90;;;;;;5055510;28;20467;-70
2023/10/24 03:59:13;;;;;;;18.67;16.87;;;11.50;99.90;;;;;;5055571;28;20465;-70
2023/10/24 04:01:41;;;;;;;17.83;16.23;;;11.50;99.90;;;;;;5055544;28;20545;-70
2023/10/24 04:04:09;;;;;;;18.50;16.80;;;11.50;99.90;;;;;;5055544;28;20434;-70
2023/10/24 04:06:37;;;;;;;17.50;16.00;;;11.50;99.90;;;;;;5055471;28;20491;-70
2023/10/24 04:09:05;;;;;;;17.90;16.40;;;11.50;99.90;;;;;;5055202;28;20461;-70
2023/10/24 04:11:35;;;;;;;18.27;16.57;;;11.50;99.90;;;;;;5055186;28;20445;-71
2023/10/24 04:14:03;;;;;;;17.83;16.33;;;11.50;99.90;;;;;;5054098;28;20446;-70
2023/10/24 04:16:32;;;;;;;18.23;16.60;;;11.50;99.90;;;;;;5055305;28;20563;-69
2023/10/24 04:19:00;;;;;;;17.60;16.00;;;11.60;99.90;;;;;;5055164;28;20454;-70
2023/10/24 04:21:29;;;;;;;18.03;16.30;;;11.50;99.90;;;;;;5055269;28;20449;-70
2023/10/24 04:23:58;;;;;;;17.63;16.13;;;11.60;99.90;;;;;;5055137;28;20478;-70
2023/10/24 04:26:26;;;;;;;19.17;17.47;;;11.60;99.90;;;;;;5055157;28;20462;-70
2023/10/24 04:28:55;;;;;;;20.03;18.23;;;11.60;99.90;;;;;;5054996;28;20477;-70
2023/10/24 04:31:23;;;;;;;18.93;17.10;;;11.60;99.90;;;;;;5054978;28;20487;-70
2023/10/24 04:33:52;;;;;;;17.60;16.00;;;11.60;99.90;;;;;;5055492;28;20472;-70
2023/10/24 04:36:20;;;;;;;19.40;17.10;;;11.60;99.90;;;;;;5054711;28;20460;-70
2023/10/24 04:38:48;;;;;;;17.87;16.27;;;11.60;99.90;;;;;;5054815;28;20450;-69
2023/10/24 04:41:16;;;;;;;19.13;17.17;;;11.60;99.90;;;;;;5055097;28;21011;-70
2023/10/24 04:43:44;;;;;;;18.20;16.70;;;11.60;99.90;;;;;;5055276;28;20540;-70
2023/10/24 04:46:13;;;;;;;20.10;18.20;;;11.60;99.90;;;;;;5054981;28;20462;-70
2023/10/24 04:48:42;;;;;;;20.93;19.07;;;11.60;99.90;;;;;;5054593;28;20458;-70
2023/10/24 04:51:11;;;;;;;22.17;20.07;;;11.60;99.90;;;;;;5054674;28;20434;-70
2023/10/24 04:53:39;;;;;;;20.97;19.10;;;11.60;99.90;;;;;;5036772;28;20607;-70
2023/10/24 04:56:07;;;;;;;20.90;18.90;;;11.60;99.90;;;;;;5054766;28;20450;-70
2023/10/24 04:58:36;;;;;;;21.47;19.17;;;11.60;99.90;;;;;;5054316;28;20481;-70
2023/10/24 05:01:04;;;;;;;21.30;19.40;;;11.60;99.90;;;;;;5036533;28;20445;-70
2023/10/24 05:03:36;;;;;;;22.67;20.37;;;11.60;99.90;;;;;;5054645;28;20536;-70
2023/10/24 05:06:05;;;;;;;20.00;18.10;;;11.70;99.90;;;;;;5054388;28;20506;-70
2023/10/24 05:08:33;;;;;;;22.47;20.30;;;11.70;99.90;;;;;;5052949;28;21070;-70
2023/10/24 05:11:02;;;;;;;23.20;19.90;;;11.70;99.90;;;;;;5054270;28;20434;-70
2023/10/24 05:13:30;;;;;;;22.10;20.20;;;11.70;99.90;;;;;;5054406;28;20446;-70
2023/10/24 05:15:58;;;;;;;22.13;20.13;;;11.70;99.90;;;;;;5054187;28;20470;-70
2023/10/24 05:18:26;;;;;;;21.37;19.40;;;11.70;99.90;;;;;;5052661;28;20580;-70
2023/10/24 05:21:11;;;;;;;24.80;22.33;;;11.70;99.90;;;;;;5009821;28;20446;-70
2023/10/24 05:23:39;;;;;;;22.60;20.50;;;11.70;99.90;;;;;;5054237;28;20449;-70
2023/10/24 05:26:07;;;;;;;23.03;20.83;;;11.70;99.90;;;;;;5054871;28;20466;-70
2023/10/24 05:28:35;;;;;;;24.10;21.70;;;11.70;99.90;;;;;;5053847;28;20464;-70
2023/10/24 05:31:07;;;;;;;23.23;21.10;;;11.70;99.90;;;;;;5052585;28;20790;-70
2023/10/24 05:33:36;;;;;;;24.40;22.07;;;11.70;99.90;;;;;;5054184;28;20425;-70
2023/10/24 05:36:04;;;;;;;22.30;20.10;;;11.70;99.90;;;;;;5053802;28;20826;-70
2023/10/24 05:38:34;;;;;;;23.13;20.90;;;11.70;99.90;;;;;;5053861;28;20480;-70
2023/10/24 05:41:02;;;;;;;23.90;21.53;;;11.70;99.90;;;;;;5035898;28;20449;-70
2023/10/24 05:43:30;;;;;;;24.80;22.50;;;11.70;99.90;;;;;;5053641;28;20461;-70
2023/10/24 05:45:58;;;;;;;22.70;20.50;;;11.70;99.90;;;;;;5053639;28;20788;-70
2023/10/24 05:48:26;;;;;;;22.10;20.10;;;11.70;99.90;;;;;;5053501;28;20830;-70
2023/10/24 05:50:54;;;;;;;24.70;22.13;;;11.70;99.90;;;;;;5052296;28;20444;-70
2023/10/24 05:53:23;;;;;;;23.43;21.27;;;11.70;99.90;;;;;;5053536;28;20434;-70
2023/10/24 05:55:52;;;;;;;24.33;22.00;;;11.80;99.90;;;;;;5053457;28;20529;-70
2023/10/24 05:58:21;;;;;;;24.80;22.47;;;11.70;99.90;;;;;;5053379;28;20470;-70
2023/10/24 06:00:49;;;;;;;24.53;22.33;;;11.80;99.90;;;;;;5053406;28;20440;-70
2023/10/24 06:03:18;;;;;;;25.90;23.30;;;11.70;99.90;;;;;;5053341;28;20869;-71
2023/10/24 06:05:49;;;;;;;26.53;23.90;;;11.70;99.90;;;;;;5053286;28;20956;-70
2023/10/24 06:08:17;;;;;;;26.07;23.67;;;11.70;99.90;;;;;;5053240;28;20453;-71
2023/10/24 06:10:56;;;;;;;25.33;22.87;;;11.80;99.90;;;;;;5053263;28;20488;-71
2023/10/24 06:13:25;;;;;;;24.90;22.60;;;11.80;99.90;;;;;;5053401;28;20422;-71
2023/10/24 06:15:54;;;;;;;25.00;22.67;;;11.70;99.90;;;;;;5051887;28;20453;-70
2023/10/24 06:18:22;;;;;;;24.60;22.10;;;11.80;99.90;;;;;;5052965;28;20560;-70
2023/10/24 06:20:53;;;;;;;25.67;22.97;;;11.70;99.90;;;;;;5053345;28;20450;-71
2023/10/24 06:23:23;;;;;;;27.13;24.60;;;11.80;99.90;;;;;;5053136;28;20774;-70
2023/10/24 06:25:51;;;;;;;26.50;24.00;;;11.80;99.90;;;;;;5053683;28;20826;-70
2023/10/24 06:28:20;;;;;;;25.43;23.07;;;11.80;99.90;;;;;;5053180;28;20453;-70
2023/10/24 06:30:48;;;;;;;25.93;23.43;;;11.80;99.90;;;;;;5053064;28;20434;-70
2023/10/24 06:33:16;;;;;;;26.47;24.17;;;11.80;99.90;;;;;;5054673;28;20446;-70
2023/10/24 06:35:45;;;;;;;32.00;28.83;;;11.80;99.90;;;;;;5057226;28;20445;-70
2023/10/24 06:38:13;;;;;;;30.80;27.90;;;11.80;99.90;;;;;;5057025;28;20476;-70
2023/10/24 06:40:45;;;;;;;27.90;25.40;;;11.80;99.90;;;;;;5057091;28;20533;-70
2023/10/24 06:43:13;;;;;;;28.13;25.37;;;11.80;99.90;;;;;;5057418;28;20445;-70
2023/10/24 06:45:43;;;;;;;27.50;24.60;;;11.80;99.90;;;;;;5057538;28;20438;-70
2023/10/24 06:48:11;;;;;;;27.23;24.67;;;11.90;99.90;;;;;;5056945;28;20461;-70
2023/10/24 06:50:40;;;;;;;28.20;25.33;;;11.80;99.90;;;;;;5056912;28;20435;-70
2023/10/24 06:53:12;;;;;;;27.60;24.97;;;11.80;99.90;;;;;;5057333;28;20433;-70
2023/10/24 06:55:41;;;;;;;26.40;23.90;;;11.90;99.90;;;;;;5056755;28;20935;-70
2023/10/24 06:58:09;;;;;;;27.77;25.00;;;11.80;99.90;;;;;;5056824;28;20888;-70
2023/10/24 07:00:37;;;;;;;26.20;23.70;;;11.90;99.90;;;;;;5038789;28;20456;-70
2023/10/24 07:03:08;;;;;;;31.13;27.87;;;11.90;99.90;;;;;;5056681;28;20440;-70
2023/10/24 07:05:36;;;;;;;31.47;27.50;;;11.90;99.90;;;;;;5056928;28;20429;-70
2023/10/24 07:08:04;;;;;;;25.10;22.50;;;11.90;99.90;;;;;;5056765;28;20453;-70
2023/10/24 07:10:33;;;;;;;25.07;22.73;;;11.90;99.90;;;;;;5058275;28;20429;-70
2023/10/24 07:13:03;;;;;;;24.93;22.53;;;11.90;99.90;;;;;;5058449;28;20529;-70
2023/10/24 07:15:31;;;;;;;22.93;20.53;;;11.90;99.90;;;;;;5058627;28;20429;-71
2023/10/24 07:17:59;;;;;;;20.70;18.80;;;11.90;99.90;;;;;;5057986;28;20480;-70
2023/10/24 07:20:29;;;;;;;20.03;18.10;;;11.90;99.90;;;;;;5058031;28;20434;-70
2023/10/24 07:22:57;;;;;;;20.80;18.60;;;11.90;99.90;;;;;;5058082;28;20536;-70
2023/10/24 07:25:25;;;;;;;19.50;17.60;;;11.90;99.90;;;;;;5058085;28;20426;-71
2023/10/24 07:27:55;;;;;;;17.93;16.23;;;11.90;99.90;;;;;;5038503;28;20560;-70
2023/10/24 07:30:23;;;;;;;23.23;20.87;;;11.90;99.90;;;;;;5039532;28;20786;-70
2023/10/24 07:32:53;;;;;;;20.57;18.40;;;12.00;99.90;;;;;;5056463;28;20499;-70
2023/10/24 07:35:22;;;;;;;20.33;18.13;;;11.90;99.90;;;;;;5056963;28;20457;-71
2023/10/24 07:37:53;;;;;;;18.40;16.57;;;12.00;99.90;;;;;;5056759;28;20454;-70
2023/10/24 07:40:21;;;;;;;17.77;16.10;;;12.00;99.90;;;;;;5056762;28;20439;-70
2023/10/24 07:42:49;;;;;;;17.20;15.50;;;12.00;99.90;;;;;;5055462;28;20525;-71
2023/10/24 07:45:17;;;;;;;17.73;16.00;;;12.00;99.90;;;;;;5055807;28;20437;-69
2023/10/24 07:47:45;;;;;;;17.53;15.67;;;12.00;99.90;;;;;;5056550;28;20494;-70
2023/10/24 07:50:14;;;;;;;17.73;15.93;;;12.00;99.90;;;;;;5055446;28;20537;-70
2023/10/24 07:52:42;;;;;;;18.90;17.20;;;12.00;99.90;;;;;;5055102;28;20486;-70
2023/10/24 07:55:11;;;;;;;17.50;15.47;;;12.10;99.90;;;;;;5038843;28;20449;-70
2023/10/24 07:57:39;;;;;;;26.23;23.30;;;12.10;99.90;;;;;;5054939;28;20470;-70
2023/10/24 08:00:09;;;;;;;20.27;18.27;;;12.10;99.90;;;;;;5056159;28;21053;-69
2023/10/24 08:02:40;;;;;;;18.30;16.60;;;12.10;99.90;;;;;;5056980;28;20426;-70
2023/10/24 08:05:09;;;;;;;17.80;16.00;;;12.10;99.90;;;;;;5056672;28;20521;-70
2023/10/24 08:07:37;;;;;;;18.93;16.83;;;12.10;99.90;;;;;;5056532;28;20458;-70
2023/10/24 08:10:07;;;;;;;18.50;16.60;;;12.10;99.90;;;;;;5040270;28;20442;-70
2023/10/24 08:12:36;;;;;;;19.43;17.57;;;12.20;99.90;;;;;;5058251;28;20438;-70
2023/10/24 08:15:05;;;;;;;18.13;16.33;;;12.20;99.90;;;;;;5058733;28;20466;-70
2023/10/24 08:17:33;;;;;;;19.23;17.37;;;12.20;99.90;;;;;;5056081;28;20454;-70
2023/10/24 08:20:02;;;;;;;24.23;21.90;;;12.30;99.90;;;;;;5055781;28;20470;-70
2023/10/24 08:22:31;;;;;;;24.20;21.90;;;12.30;99.90;;;;;;5054155;28;20442;-70
2023/10/24 08:24:59;;;;;;;26.63;23.87;;;12.30;99.90;;;;;;5037571;28;20442;-70
2023/10/24 08:27:27;;;;;;;21.80;19.80;;;12.30;99.90;;;;;;5055730;28;20804;-70
2023/10/24 08:29:57;;;;;;;21.97;20.00;;;12.30;99.90;;;;;;5037990;28;20870;-70
2023/10/24 08:32:25;;;;;;;24.73;22.43;;;12.40;99.90;;;;;;5054642;28;20430;-70
2023/10/24 08:34:54;;;;;;;23.20;21.10;;;12.40;99.90;;;;;;5055728;28;20438;-70
2023/10/24 08:37:22;;;;;;;23.40;21.40;;;12.40;99.90;;;;;;5055357;28;20480;-70
2023/10/24 08:39:50;;;;;;;22.00;20.10;;;12.40;99.90;;;;;;5055864;28;20827;-69
2023/10/24 08:42:19;;;;;;;25.93;23.13;;;12.40;99.90;;;;;;5055569;28;20442;-70
2023/10/24 08:44:47;;;;;;;24.03;21.60;;;12.50;99.90;;;;;;5037858;28;20442;-70
2023/10/24 08:47:19;;;;;;;23.67;21.33;;;12.50;99.90;;;;;;5055729;28;21022;-70
2023/10/24 08:49:47;;;;;;;24.13;21.77;;;12.50;99.90;;;;;;5056702;28;20526;-70
2023/10/24 08:52:16;;;;;;;23.50;21.17;;;12.50;99.90;;;;;;5056263;28;20819;-70
2023/10/24 08:55:00;;;;;;;22.20;20.20;;;12.50;99.90;;;;;;5056995;28;20433;-70
2023/10/24 08:57:34;;;;;;;24.10;21.87;;;12.50;99.90;;;;;;5038351;28;20560;-70
2023/10/24 09:00:03;;;;;;;31.53;28.53;;;12.60;99.90;;;;;;5056283;28;20465;-70
2023/10/24 09:02:32;;;;;;;26.37;23.77;;;12.60;99.90;;;;;;5038122;28;20445;-70
2023/10/24 09:05:01;;;;;;;21.63;19.67;;;12.60;99.90;;;;;;5056764;28;20469;-70
2023/10/24 09:07:30;;;;;;;21.47;19.40;;;12.70;99.90;;;;;;5038705;28;20458;-70
2023/10/24 09:09:58;;;;;;;22.03;19.87;;;12.70;99.90;;;;;;5056729;28;20523;-70
2023/10/24 09:12:30;;;;;;;22.63;20.43;;;12.70;99.90;;;;;;5056579;28;20924;-70
2023/10/24 09:14:59;;;;;;;20.90;19.00;;;12.70;99.90;;;;;;5038379;28;20439;-70
2023/10/24 09:17:31;;;;;;;19.27;17.47;;;12.70;99.90;;;;;;5056391;28;20510;-70
2023/10/24 09:20:02;;;;;;;19.23;17.13;;;12.70;99.90;;;;;;5038420;28;20458;-70
2023/10/24 09:22:31;;;;;;;19.63;17.80;;;12.80;99.90;;;;;;5039430;28;20458;-70
2023/10/24 09:25:01;;;;;;;18.77;16.87;;;12.80;99.90;;;;;;5056528;28;20962;-70
2023/10/24 09:27:29;;;;;;;18.70;16.90;;;12.80;99.90;;;;;;5038632;28;20537;-70
2023/10/24 09:29:57;;;;;;;18.73;16.90;;;12.80;99.90;;;;;;5055054;28;20470;-70
2023/10/24 09:32:27;;;;;;;17.27;15.57;;;12.80;99.90;;;;;;5056055;28;20480;-70
2023/10/24 09:34:55;;;;;;;17.50;15.90;;;12.80;99.90;;;;;;5038694;28;20805;-70
2023/10/24 09:37:25;;;;;;;17.60;15.80;;;12.80;99.90;;;;;;5056300;28;20527;-70
2023/10/24 09:39:54;;;;;;;16.60;15.17;;;12.80;99.90;;;;;;5056274;28;20509;-70
2023/10/24 09:42:27;;;;;;;19.40;17.70;;;12.90;99.90;;;;;;5038453;28;20446;-70
2023/10/24 09:45:01;;;;;;;18.20;16.50;;;12.90;99.90;;;;;;5056497;28;20603;-70
2023/10/24 09:47:31;;;;;;;15.97;14.57;;;12.90;99.90;;;;;;5056439;28;20454;-70
2023/10/24 09:50:00;;;;;;;16.03;14.50;;;13.00;99.90;;;;;;5038787;28;20446;-70
2023/10/24 09:52:30;;;;;;;16.30;14.70;;;13.00;99.90;;;;;;5056599;28;20500;-70
2023/10/24 09:54:59;;;;;;;16.20;14.53;;;13.00;99.90;;;;;;5056691;28;20476;-70
2023/10/24 09:57:29;;;;;;;17.50;14.33;;;13.10;99.90;;;;;;5056140;28;20818;-70
2023/10/24 10:00:00;;;;;;;14.53;13.37;;;13.10;99.90;;;;;;5056548;28;20466;-70
2023/10/24 10:02:28;;;;;;;15.33;13.83;;;13.10;99.90;;;;;;5038970;28;20435;-70
2023/10/24 10:04:57;;;;;;;14.83;13.53;;;13.20;99.90;;;;;;5056910;28;20460;-70
2023/10/24 10:07:26;;;;;;;13.80;12.60;;;13.20;99.90;;;;;;5056684;28;20486;-70
2023/10/24 10:09:58;;;;;;;14.43;12.90;;;13.20;99.90;;;;;;5056490;28;20438;-70
2023/10/24 10:12:29;;;;;;;12.93;11.83;;;13.30;99.90;;;;;;5055441;28;20868;-70
2023/10/24 10:15:27;;;;;;;12.60;11.50;;;13.30;99.90;;;;;;5055215;28;20430;-70
2023/10/24 10:18:04;;;;;;;12.70;11.10;;;13.30;99.90;;;;;;5054876;28;20540;-70
2023/10/24 10:20:53;;;;;;;14.40;13.00;;;13.40;99.90;;;;;;5054558;28;20453;-70
2023/10/24 10:23:37;;;;;;;13.87;12.53;;;13.40;99.90;;;;;;5054603;28;20422;-70
2023/10/24 10:26:15;;;;;;;13.10;12.00;;;13.40;99.90;;;;;;5054770;28;20424;-70
2023/10/24 10:29:01;;;;;;;12.07;11.13;;;13.50;99.90;;;;;;5053135;28;20476;-70
2023/10/24 10:31:58;;;;;;;13.97;12.87;;;13.50;99.90;;;;;;5055121;28;20415;-71
2023/10/24 10:34:46;;;;;;;18.43;16.60;;;13.50;99.90;;;;;;5055006;28;20517;-70
2023/10/24 10:37:14;;;;;;;12.90;11.70;;;13.60;99.90;;;;;;5054953;28;20994;-70
2023/10/24 10:39:43;;;;;;;11.33;10.43;;;13.60;99.90;;;;;;5036402;28;20466;-70
2023/10/24 10:42:47;;;;;;;12.70;11.60;;;13.60;99.90;;;;;;5054297;28;20529;-70
2023/10/24 10:45:28;;;;;;;12.40;11.20;;;13.60;99.90;;;;;;5054508;28;20422;-70
2023/10/24 10:47:59;;;;;;;11.37;10.43;;;13.60;99.90;;;;;;5054887;28;20458;-70
2023/10/24 10:50:31;;;;;;;11.90;10.93;;;13.70;99.90;;;;;;5055145;28;20419;-70
2023/10/24 10:53:21;;;;;;;13.13;12.03;;;13.70;99.90;;;;;;5054909;28;20448;-70
2023/10/24 10:56:03;;;;;;;13.37;12.17;;;13.70;99.90;;;;;;5054444;28;20418;-70
2023/10/24 10:58:44;;;;;;;12.87;11.63;;;13.70;99.90;;;;;;5054641;28;20471;-70
2023/10/24 11:01:24;;;;;;;11.90;10.87;;;13.80;99.90;;;;;;5054598;28;20460;-70
2023/10/24 11:03:57;;;;;;;11.70;10.70;;;13.80;99.90;;;;;;5036016;28;20838;-70
2023/10/24 11:06:28;;;;;;;11.47;10.43;;;13.80;99.90;;;;;;5052904;28;20426;-70
2023/10/24 11:09:10;;;;;;;11.77;10.67;;;13.80;99.90;;;;;;5035064;28;20497;-70
2023/10/24 11:11:39;;;;;;;10.77;9.97;;;13.80;99.90;;;;;;5053267;28;20458;-70
2023/10/24 11:14:19;;;;;;;10.60;9.70;;;13.80;99.90;;;;;;5053099;28;20444;-70
2023/10/24 11:16:50;;;;;;;11.73;10.83;;;13.80;99.90;;;;;;5035149;28;20426;-70
2023/10/24 11:19:24;;;;;;;12.23;11.10;;;13.90;99.90;;;;;;5053560;28;20472;-70
2023/10/24 11:21:54;;;;;;;11.30;10.40;;;13.90;99.90;;;;;;5039165;28;20876;-70
2023/10/24 11:24:24;;;;;;;11.97;10.97;;;13.90;99.90;;;;;;5057630;28;20505;-70
2023/10/24 11:26:56;;;;;;;11.40;10.47;;;13.90;99.90;;;;;;5038481;28;20465;-70
2023/10/24 11:29:26;;;;;;;10.43;9.40;;;13.90;99.90;;;;;;5056657;28;20426;-70
2023/10/24 11:31:56;;;;;;;11.17;10.27;;;13.90;99.90;;;;;;5056173;28;20485;-70
2023/10/24 11:34:24;;;;;;;10.00;9.10;;;13.90;99.90;;;;;;5038303;28;20442;-69
2023/10/24 11:36:53;;;;;;;9.50;8.60;;;13.90;99.90;;;;;;5055975;28;20445;-70
2023/10/24 11:39:21;;;;;;;8.60;7.80;;;13.90;99.90;;;;;;5056099;28;20521;-70
2023/10/24 11:41:49;;;;;;;8.40;7.60;;;13.90;99.90;;;;;;5055929;28;20500;-70
2023/10/24 11:44:17;;;;;;;7.43;6.73;;;13.90;99.90;;;;;;5056497;28;20790;-70
2023/10/24 11:46:47;;;;;;;7.30;6.70;;;13.80;99.90;;;;;;5037953;28;20446;-70
2023/10/24 11:49:15;;;;;;;7.80;7.20;;;13.80;99.90;;;;;;5055848;28;20430;-70
2023/10/24 11:51:43;;;;;;;7.50;6.90;;;13.80;99.90;;;;;;5055884;28;20431;-70
2023/10/24 11:54:13;;;;;;;7.83;7.13;;;13.80;99.90;;;;;;5055775;28;20472;-70
2023/10/24 11:56:41;;;;;;;6.70;6.17;;;13.80;99.90;;;;;;5056000;28;20860;-70
2023/10/24 11:59:12;;;;;;;10.97;9.57;;;13.80;99.90;;;;;;5055753;28;20462;-70
2023/10/24 12:01:43;;;;;;;6.30;5.70;;;13.80;99.90;;;;;;5055607;28;20468;-70
2023/10/24 12:04:14;;;;;;;6.63;6.03;;;13.80;99.90;;;;;;5037771;28;20454;-70
2023/10/24 12:06:42;;;;;;;6.90;6.30;;;13.80;99.90;;;;;;5037661;28;20496;-71
2023/10/24 12:09:12;;;;;;;6.93;6.33;;;13.80;99.90;;;;;;5037672;28;20445;-70
2023/10/24 12:11:40;;;;;;;6.20;5.70;;;13.80;99.90;;;;;;5055717;28;20495;-70
2023/10/24 12:14:08;;;;;;;6.50;6.00;;;13.80;99.90;;;;;;5055963;28;20830;-70
2023/10/24 12:16:39;;;;;;;6.00;5.50;;;13.80;99.90;;;;;;5055550;28;20442;-70
2023/10/24 12:19:27;;;;;;;6.53;6.03;;;13.80;99.90;;;;;;5037503;28;20438;-70
2023/10/24 12:21:56;;;;;;;6.40;5.80;;;13.80;99.90;;;;;;5055121;28;20540;-70
2023/10/24 12:24:24;;;;;;;6.87;6.17;;;13.80;99.90;;;;;;5037612;28;20464;-71
2023/10/24 12:26:52;;;;;;;6.80;6.20;;;13.90;99.90;;;;;;5055099;28;20476;-71
2023/10/24 12:29:20;;;;;;;6.20;5.70;;;13.90;99.90;;;;;;5055171;28;20491;-70
2023/10/24 12:31:48;;;;;;;5.03;4.57;;;13.90;99.90;;;;;;5054975;28;20524;-70
2023/10/24 12:34:16;;;;;;;6.40;5.03;;;14.00;99.90;;;;;;5037339;28;20856;-70
2023/10/24 12:36:47;;;;;;;5.93;5.43;;;14.00;99.90;;;;;;5054814;28;20955;-70
2023/10/24 12:39:17;;;;;;;5.10;4.70;;;14.10;99.90;;;;;;5053652;28;20450;-70
2023/10/24 12:41:45;;;;;;;5.30;4.90;;;14.10;99.90;;;;;;5055120;28;21046;-70